Rib Falls, Wisconsin
Current Conditions -  °F | °C
As of 8:25 AM on Sunday 23 Nov 2014 (Local Time) from KCWA Reporting Station
Drizzle Drizzle  
Wind Chill: 40°   Ceiling: 200
Heat Index: 45°   Visibility: 0.12mi
Dew Point: 45°   Wind: 8mph
Humidity: 100%   Direction: 160°SSE
Pressure: 29.57"   Gusts: NA
Location:  44.8973°N, 90.0113°W
Report Text: KCWA 231425Z 16007KT 1/8SM -DZ FG OVC002 07/07 A2957
Loading
Personal Weather Stations






























Interactive Weather Map New forecast layout! Learn more

10-Day Weather Forecast

Advertisements
Track Severe Weather on mobile